createdAt,value
2018-09-01T00:00:55.829Z,85.90
2018-09-01T00:03:28.993Z,85.30
2018-09-01T00:06:02.138Z,86.00
2018-09-01T00:08:36.225Z,86.40
2018-09-01T00:11:09.434Z,85.80
2018-09-01T00:13:42.585Z,85.60
2018-09-01T00:16:15.756Z,85.60
2018-09-01T00:18:49.167Z,85.20
2018-09-01T00:21:22.306Z,86.00
2018-09-01T00:23:55.464Z,85.20
2018-09-01T00:26:28.644Z,84.80
2018-09-01T00:29:01.819Z,85.00
2018-09-01T00:31:35.121Z,85.00
2018-09-01T00:34:08.298Z,85.10
2018-09-01T00:36:41.437Z,85.60
2018-09-01T00:39:14.595Z,85.50
2018-09-01T00:41:47.746Z,85.90
2018-09-01T00:44:21.081Z,86.30
2018-09-01T00:46:54.219Z,86.20
2018-09-01T00:49:27.408Z,86.40
2018-09-01T00:52:00.583Z,85.50
2018-09-01T00:54:33.762Z,85.20
2018-09-01T00:57:07.029Z,85.40
2018-09-01T00:59:40.197Z,85.20
2018-09-01T01:02:13.351Z,84.80
2018-09-01T01:04:46.618Z,85.20
2018-09-01T01:07:19.792Z,85.00
2018-09-01T01:09:53.019Z,85.30
2018-09-01T01:12:26.184Z,85.70
2018-09-01T01:14:59.382Z,85.20
2018-09-01T01:17:32.619Z,85.50
2018-09-01T01:20:05.781Z,85.70
2018-09-01T01:22:38.933Z,86.10
2018-09-01T01:25:12.099Z,86.00
2018-09-01T01:27:45.283Z,86.10
2018-09-01T01:30:18.428Z,85.60
2018-09-01T01:32:51.666Z,86.00
2018-09-01T01:35:24.821Z,86.20
2018-09-01T01:37:57.982Z,86.00
2018-09-01T01:40:31.149Z,86.20
2018-09-01T01:43:04.298Z,86.70
2018-09-01T01:45:37.486Z,86.90
2018-09-01T01:48:10.627Z,87.30
2018-09-01T01:50:43.787Z,87.30
2018-09-01T01:53:17.133Z,87.30
2018-09-01T01:55:50.294Z,87.50
2018-09-01T01:58:23.434Z,87.10
2018-09-01T02:00:56.607Z,86.90
2018-09-01T02:03:29.761Z,86.60
2018-09-01T02:06:02.912Z,86.90
2018-09-01T02:08:36.083Z,87.10
2018-09-01T02:11:09.298Z,87.10
2018-09-01T02:13:42.461Z,87.40
2018-09-01T02:16:15.649Z,87.60
2018-09-01T02:18:48.825Z,87.30
2018-09-01T02:21:21.981Z,86.40
2018-09-01T02:23:55.133Z,86.20
2018-09-01T02:26:28.425Z,85.70
2018-09-01T02:29:01.590Z,85.50
2018-09-01T02:31:34.751Z,85.70
2018-09-01T02:34:07.903Z,85.60
2018-09-01T02:36:41.061Z,85.40
2018-09-01T02:39:14.223Z,84.70
2018-09-01T02:41:47.384Z,85.10
2018-09-01T02:44:20.545Z,84.10
2018-09-01T02:46:53.721Z,84.90
2018-09-01T02:49:26.870Z,84.70
2018-09-01T02:52:00.087Z,84.50
2018-09-01T02:54:33.241Z,85.50
2018-09-01T02:57:06.733Z,85.20
2018-09-01T02:59:39.877Z,84.90
2018-09-01T03:02:17.290Z,85.00
2018-09-01T03:04:53.454Z,84.80
2018-09-01T03:07:26.612Z,85.50
2018-09-01T03:09:59.763Z,86.10
2018-09-01T03:12:32.944Z,86.20
2018-09-01T03:15:06.832Z,85.80
2018-09-01T03:17:39.987Z,85.80
2018-09-01T03:20:13.149Z,85.50
2018-09-01T03:22:46.318Z,86.20
2018-09-01T03:25:19.456Z,86.30
2018-09-01T03:27:52.633Z,85.90
2018-09-01T03:30:25.763Z,84.90
2018-09-01T03:32:58.946Z,86.70
2018-09-01T03:35:32.087Z,85.90
2018-09-01T03:38:05.289Z,85.70
2018-09-01T03:40:38.434Z,86.30
2018-09-01T03:43:11.578Z,86.60
2018-09-01T03:45:44.740Z,86.20
2018-09-01T03:48:17.904Z,85.60
2018-09-01T03:50:51.084Z,86.00
2018-09-01T03:53:24.230Z,85.90
2018-09-01T03:55:57.379Z,85.60
2018-09-01T03:58:30.537Z,85.90
2018-09-01T04:01:03.699Z,86.00
2018-09-01T04:03:37.093Z,85.80
2018-09-01T04:06:10.292Z,86.00
2018-09-01T04:08:43.460Z,85.60
2018-09-01T04:11:16.646Z,86.00
2018-09-01T04:13:49.817Z,86.00
2018-09-01T04:16:22.965Z,85.80
2018-09-01T04:18:56.153Z,86.00
2018-09-01T04:21:29.315Z,85.20
2018-09-01T04:24:02.477Z,85.60
2018-09-01T04:26:35.643Z,85.90
2018-09-01T04:29:08.813Z,86.00
2018-09-01T04:31:41.964Z,86.30
2018-09-01T04:34:15.154Z,85.50
2018-09-01T04:36:48.327Z,85.90
2018-09-01T04:39:21.494Z,85.60
2018-09-01T04:41:54.639Z,86.10
2018-09-01T04:44:27.807Z,85.90
2018-09-01T04:47:01.082Z,86.00
2018-09-01T04:49:34.285Z,86.60
2018-09-01T04:52:07.446Z,85.80
2018-09-01T04:54:40.615Z,85.70
2018-09-01T04:57:13.774Z,85.80
2018-09-01T04:59:46.957Z,85.40
2018-09-01T05:02:20.121Z,85.50
2018-09-01T05:04:53.318Z,85.60
2018-09-01T05:07:26.577Z,85.20
2018-09-01T05:09:59.730Z,85.50
2018-09-01T05:12:32.903Z,86.20
2018-09-01T05:15:06.109Z,86.40
2018-09-01T05:17:39.253Z,86.20
2018-09-01T05:20:12.501Z,86.20
2018-09-01T05:22:45.670Z,85.10
2018-09-01T05:25:18.850Z,86.20
2018-09-01T05:27:52.034Z,85.50
2018-09-01T05:30:25.214Z,86.00
2018-09-01T05:32:58.637Z,86.50
2018-09-01T05:35:31.855Z,85.90
2018-09-01T05:38:05.005Z,85.80
2018-09-01T05:40:38.203Z,85.90
2018-09-01T05:43:11.366Z,85.60
2018-09-01T05:45:44.579Z,86.30
2018-09-01T05:48:17.747Z,85.00
2018-09-01T05:50:50.941Z,85.20
2018-09-01T05:53:24.143Z,85.20
2018-09-01T05:55:57.310Z,84.30
2018-09-01T05:58:30.561Z,85.00
2018-09-01T06:01:03.714Z,84.60
2018-09-01T06:03:36.891Z,84.80
2018-09-01T06:06:10.150Z,84.50
2018-09-01T06:08:43.250Z,85.20
2018-09-01T06:11:16.519Z,85.20
2018-09-01T06:13:49.658Z,85.30
2018-09-01T06:16:22.857Z,85.70
2018-09-01T06:18:56.045Z,85.50
2018-09-01T06:21:29.260Z,84.80
2018-09-01T06:24:02.749Z,84.80
2018-09-01T06:26:35.830Z,83.90
2018-09-01T06:29:14.343Z,83.10
2018-09-01T06:31:51.585Z,83.00
2018-09-01T06:34:24.853Z,82.20
2018-09-01T06:36:58.072Z,82.80
2018-09-01T06:39:31.327Z,81.90
2018-09-01T06:42:04.501Z,81.40
2018-09-01T06:44:37.678Z,81.80
2018-09-01T06:47:10.890Z,82.30
2018-09-01T06:49:44.057Z,81.70
2018-09-01T06:52:17.313Z,81.20
2018-09-01T06:54:50.473Z,80.80
2018-09-01T06:57:23.697Z,80.50
2018-09-01T06:59:56.849Z,82.20
2018-09-01T07:02:30.046Z,80.40
2018-09-01T07:05:03.203Z,81.00
2018-09-01T07:07:36.376Z,80.20
2018-09-01T07:10:09.542Z,79.40
2018-09-01T07:12:42.727Z,80.40
2018-09-01T07:15:16.242Z,78.80
2018-09-01T07:17:49.398Z,79.50
2018-09-01T07:20:22.625Z,80.40
2018-09-01T07:22:55.759Z,80.80
2018-09-01T07:25:28.933Z,80.00
2018-09-01T07:28:02.111Z,81.10
2018-09-01T07:30:35.460Z,80.50
2018-09-01T07:33:08.449Z,79.20
2018-09-01T07:35:41.610Z,79.10
2018-09-01T07:38:14.777Z,79.00
2018-09-01T07:40:47.949Z,78.50
2018-09-01T07:43:21.197Z,78.00
2018-09-01T07:45:54.349Z,78.40
2018-09-01T07:48:27.529Z,75.50
2018-09-01T07:51:00.823Z,75.70
2018-09-01T07:53:33.974Z,76.80
2018-09-01T07:56:07.248Z,76.00
2018-09-01T07:58:40.462Z,75.10
2018-09-01T08:01:13.698Z,76.20
2018-09-01T08:03:46.858Z,76.00
2018-09-01T08:06:20.006Z,77.00
2018-09-01T08:08:53.174Z,75.30
2018-09-01T08:11:26.325Z,76.80
2018-09-01T08:13:59.722Z,75.70
2018-09-01T08:16:32.686Z,75.00
2018-09-01T08:19:06.485Z,75.20
2018-09-01T08:21:39.674Z,77.00
2018-09-01T08:24:12.849Z,73.60
2018-09-01T08:26:46.023Z,75.30
2018-09-01T08:29:19.314Z,72.80
2018-09-01T08:31:52.445Z,73.80
2018-09-01T08:34:25.603Z,72.50
2018-09-01T08:36:58.745Z,72.30
2018-09-01T08:39:31.940Z,73.20
2018-09-01T08:42:05.082Z,72.60
2018-09-01T08:44:38.255Z,72.80
2018-09-01T08:47:11.433Z,73.00
2018-09-01T08:49:44.621Z,74.10
2018-09-01T08:52:17.800Z,72.90
2018-09-01T08:54:50.951Z,73.10
2018-09-01T08:57:24.121Z,73.40
2018-09-01T08:59:57.283Z,73.60
2018-09-01T09:02:30.436Z,74.00
2018-09-01T09:05:03.758Z,73.80
2018-09-01T09:07:36.899Z,72.90
2018-09-01T09:10:10.732Z,72.90
2018-09-01T09:12:43.893Z,73.40
2018-09-01T09:15:17.067Z,70.70
2018-09-01T09:17:50.213Z,71.40
2018-09-01T09:20:23.387Z,72.40
2018-09-01T09:22:56.551Z,70.10
2018-09-01T09:25:29.733Z,69.10
2018-09-01T09:28:02.870Z,77.60
2018-09-01T09:30:36.025Z,68.50
2018-09-01T09:33:09.268Z,64.80
2018-09-01T09:35:42.429Z,66.00
2018-09-01T09:38:15.729Z,67.60
2018-09-01T09:40:48.890Z,67.60
2018-09-01T09:43:22.161Z,65.80
2018-09-01T09:45:55.360Z,65.60
2018-09-01T09:48:28.534Z,67.60
2018-09-01T09:51:01.708Z,63.70
2018-09-01T09:53:34.849Z,64.60
2018-09-01T09:56:08.194Z,63.50
2018-09-01T09:58:41.354Z,61.20
2018-09-01T10:01:19.981Z,61.60
2018-09-01T10:03:53.226Z,62.10
2018-09-01T10:06:26.387Z,62.30
2018-09-01T10:08:59.541Z,61.80
2018-09-01T10:11:32.729Z,57.80
2018-09-01T10:14:05.882Z,57.80
2018-09-01T10:16:39.572Z,56.10
2018-09-01T10:19:12.725Z,59.40
2018-09-01T10:21:45.921Z,58.30
2018-09-01T10:24:19.149Z,59.40
2018-09-01T10:26:52.375Z,62.10
2018-09-01T10:29:25.465Z,58.00
2018-09-01T10:31:58.719Z,57.10
2018-09-01T10:34:31.881Z,57.50
2018-09-01T10:37:05.066Z,54.80
2018-09-01T10:39:38.265Z,54.40
2018-09-01T10:42:11.433Z,55.00
2018-09-01T10:44:44.610Z,54.00
2018-09-01T10:47:17.770Z,53.00
2018-09-01T10:49:50.935Z,49.90
2018-09-01T10:52:24.163Z,50.70
2018-09-01T10:54:57.336Z,51.80
2018-09-01T10:57:30.731Z,49.70
2018-09-01T11:00:04.466Z,49.80
2018-09-01T11:02:37.629Z,49.60
2018-09-01T11:05:10.835Z,46.80
2018-09-01T11:07:43.932Z,48.70
2018-09-01T11:10:17.490Z,51.50
2018-09-01T11:12:50.645Z,46.90
2018-09-01T11:15:23.832Z,47.30
2018-09-01T11:17:57.013Z,47.30
2018-09-01T11:20:30.169Z,49.00
2018-09-01T11:23:03.394Z,49.50
2018-09-01T11:25:36.691Z,46.80
2018-09-01T11:28:09.987Z,47.10
2018-09-01T11:30:43.237Z,46.90
2018-09-01T11:33:16.394Z,48.60
2018-09-01T11:35:49.566Z,48.00
2018-09-01T11:38:22.738Z,49.70
2018-09-01T11:40:55.943Z,48.30
2018-09-01T11:43:29.138Z,51.30
2018-09-01T11:46:02.299Z,47.80
2018-09-01T11:48:35.447Z,49.60
2018-09-01T11:51:08.620Z,48.00
2018-09-01T11:53:41.802Z,48.80
2018-09-01T11:56:14.905Z,48.50
2018-09-01T11:58:48.098Z,51.00
2018-09-01T12:01:21.224Z,48.50
2018-09-01T12:03:54.390Z,47.70
2018-09-01T12:06:27.545Z,47.80
2018-09-01T12:09:00.809Z,48.60
2018-09-01T12:11:36.562Z,48.00
2018-09-01T12:14:09.732Z,50.50
2018-09-01T12:16:42.943Z,47.00
2018-09-01T12:19:16.102Z,48.30
2018-09-01T12:21:49.276Z,49.50
2018-09-01T12:24:22.525Z,48.60
2018-09-01T12:26:55.793Z,46.20
2018-09-01T12:29:28.991Z,44.70
2018-09-01T12:32:02.306Z,47.10
2018-09-01T12:34:35.485Z,46.90
2018-09-01T12:37:08.643Z,48.70
2018-09-01T12:39:41.797Z,45.30
2018-09-01T12:42:14.941Z,46.70
2018-09-01T12:44:48.114Z,46.50
2018-09-01T12:47:21.297Z,45.20
2018-09-01T12:49:54.415Z,47.10
2018-09-01T12:52:27.677Z,46.10
2018-09-01T12:55:00.809Z,44.10
2018-09-01T12:57:33.963Z,47.90
2018-09-01T13:00:07.327Z,45.80
2018-09-01T13:02:40.521Z,45.20
2018-09-01T13:05:13.686Z,47.10
2018-09-01T13:07:46.901Z,47.20
2018-09-01T13:10:20.058Z,47.70
2018-09-01T13:12:53.213Z,47.30
2018-09-01T13:15:26.373Z,44.60
2018-09-01T13:17:59.529Z,45.40
2018-09-01T13:20:32.685Z,46.30
2018-09-01T13:23:06.105Z,44.90
2018-09-01T13:25:39.308Z,46.50
2018-09-01T13:28:12.460Z,46.50
2018-09-01T13:30:45.684Z,47.30
2018-09-01T13:33:18.874Z,47.10
2018-09-01T13:35:52.059Z,45.20
2018-09-01T13:38:25.223Z,46.50
2018-09-01T13:40:58.368Z,47.80
2018-09-01T13:43:31.562Z,46.90
2018-09-01T13:46:04.781Z,47.70
2018-09-01T13:48:37.967Z,46.50
2018-09-01T13:51:11.250Z,46.10
2018-09-01T13:53:44.437Z,46.50
2018-09-01T14:37:26.541Z,47.80
2018-09-01T14:40:00.278Z,46.40
2018-09-01T14:42:33.505Z,45.00
2018-09-01T14:45:06.697Z,45.50
2018-09-01T14:47:39.917Z,46.20
2018-09-01T14:50:13.068Z,46.60
2018-09-01T14:52:46.249Z,45.70
2018-09-01T14:55:19.406Z,46.30
2018-09-01T14:57:52.612Z,45.00
2018-09-01T15:00:25.729Z,44.10
2018-09-01T15:02:58.930Z,45.40
2018-09-01T15:05:32.084Z,46.30
2018-09-01T15:08:05.276Z,45.00
2018-09-01T15:10:38.443Z,44.60
2018-09-01T15:13:11.628Z,48.00
2018-09-01T15:15:44.780Z,47.50
2018-09-01T15:18:17.939Z,45.10
2018-09-01T15:20:51.134Z,45.50
2018-09-01T15:23:24.479Z,45.30
2018-09-01T15:25:57.638Z,46.50
2018-09-01T15:28:30.845Z,46.50
2018-09-01T15:31:03.961Z,47.70
2018-09-01T15:33:37.129Z,46.40
2018-09-01T15:36:10.264Z,46.30
2018-09-01T15:38:44.290Z,45.60
2018-09-01T15:41:17.447Z,46.90
2018-09-01T15:43:50.634Z,46.20
2018-09-01T15:46:23.786Z,46.60
2018-09-01T15:48:56.937Z,46.00
2018-09-01T15:51:30.293Z,47.80
2018-09-01T15:54:03.447Z,47.00
2018-09-01T15:56:36.676Z,46.30
2018-09-01T15:59:09.755Z,48.80
2018-09-01T16:01:42.911Z,47.10
2018-09-01T16:04:16.101Z,47.20
2018-09-01T16:06:49.259Z,47.10
2018-09-01T16:09:22.466Z,47.20
2018-09-01T16:11:55.594Z,48.90
2018-09-01T16:14:28.771Z,49.30
2018-09-01T16:17:01.911Z,47.40
2018-09-01T16:19:35.106Z,47.00
2018-09-01T16:22:08.245Z,50.00
2018-09-01T16:24:41.528Z,48.00
2018-09-01T16:27:14.595Z,47.50
2018-09-01T16:29:47.773Z,47.60
2018-09-01T16:32:20.984Z,47.80
2018-09-01T16:34:54.149Z,72.90
2018-09-01T16:37:27.358Z,65.30
2018-09-01T16:40:00.608Z,60.50
2018-09-01T16:42:33.780Z,66.70
2018-09-01T16:45:06.926Z,65.70
2018-09-01T16:47:40.089Z,60.60
2018-09-01T16:50:13.246Z,53.70
2018-09-01T16:52:46.401Z,45.00
2018-09-01T16:55:19.651Z,46.30
2018-09-01T16:57:52.798Z,48.50
2018-09-01T17:00:26.038Z,49.50
2018-09-01T17:02:59.142Z,48.00
2018-09-01T17:05:32.400Z,48.90
2018-09-01T17:11:12.883Z,49.60
2018-09-01T17:13:46.291Z,48.60
2018-09-01T17:16:19.453Z,60.50
2018-09-01T17:18:52.622Z,58.30
2018-09-01T17:21:25.805Z,56.30
2018-09-01T17:23:58.957Z,53.70
2018-09-01T17:26:32.138Z,48.40
2018-09-01T17:30:36.782Z,46.40
2018-09-01T17:33:11.009Z,47.90
2018-09-01T17:35:44.193Z,50.90
2018-09-01T17:38:17.360Z,50.70
2018-09-01T17:40:50.574Z,51.80
2018-09-01T17:43:23.789Z,52.30
2018-09-01T17:45:56.994Z,51.10
2018-09-01T17:48:30.162Z,52.40
2018-09-01T17:51:03.376Z,52.10
2018-09-01T17:53:37.041Z,51.60
2018-09-01T17:56:10.298Z,51.50
2018-09-01T17:58:43.490Z,52.30
2018-09-01T18:01:17.794Z,53.70
2018-09-01T18:03:51.111Z,52.30
2018-09-01T18:06:24.723Z,52.60
2018-09-01T18:08:58.078Z,53.40
2018-09-01T18:11:31.354Z,53.30
2018-09-01T18:14:04.665Z,53.40
2018-09-01T18:16:38.066Z,54.10
2018-09-01T18:19:11.254Z,54.90
2018-09-01T18:21:49.958Z,56.00
2018-09-01T18:24:23.125Z,55.70
2018-09-01T18:26:56.298Z,55.90
2018-09-01T18:29:29.529Z,56.30
2018-09-01T18:32:02.629Z,57.70
2018-09-01T18:34:42.710Z,57.00
2018-09-01T18:37:15.869Z,57.90
2018-09-01T18:39:49.039Z,57.80
2018-09-01T18:42:22.322Z,58.80
2018-09-01T18:44:55.501Z,58.50
2018-09-01T18:47:28.707Z,58.70
2018-09-01T18:50:01.843Z,59.10
2018-09-01T18:52:34.993Z,59.00
2018-09-01T18:55:08.198Z,59.30
2018-09-01T18:57:41.342Z,59.70
2018-09-01T19:00:14.558Z,59.50
2018-09-01T19:02:47.998Z,59.10
2018-09-01T19:05:27.948Z,60.50
2018-09-01T19:08:01.242Z,60.70
2018-09-01T19:10:34.558Z,60.10
2018-09-01T19:13:07.836Z,61.30
2018-09-01T19:15:41.130Z,60.30
2018-09-01T19:18:14.424Z,61.20
2018-09-01T19:20:47.718Z,62.10
2018-09-01T19:23:21.008Z,61.10
2018-09-01T19:25:54.307Z,61.00
2018-09-01T19:28:27.630Z,60.80
2018-09-01T19:31:01.031Z,62.30
2018-09-01T19:33:34.184Z,62.20
2018-09-01T19:36:07.354Z,62.00
2018-09-01T19:38:40.549Z,61.70
2018-09-01T19:41:13.728Z,61.60
2018-09-01T19:43:47.179Z,60.80
2018-09-01T19:46:20.442Z,60.40
2018-09-01T19:48:53.518Z,60.20
2018-09-01T19:51:26.774Z,60.30
2018-09-01T19:54:00.201Z,60.30
2018-09-01T19:56:34.415Z,60.60
2018-09-01T19:59:07.598Z,61.30
2018-09-01T20:01:40.785Z,60.50
2018-09-01T20:04:13.979Z,59.40
2018-09-01T20:06:48.246Z,60.40
2018-09-01T20:09:21.421Z,61.30
2018-09-01T20:11:55.659Z,59.80
2018-09-01T20:14:29.068Z,61.10
2018-09-01T20:17:02.379Z,60.50
2018-09-01T20:19:35.543Z,61.10
2018-09-01T20:22:08.722Z,60.70
2018-09-01T20:24:43.945Z,59.80
2018-09-01T20:27:17.205Z,60.80
2018-09-01T20:29:50.371Z,60.50
2018-09-01T20:32:23.537Z,62.10
2018-09-01T20:35:02.275Z,61.70
2018-09-01T20:37:35.439Z,60.40
2018-09-01T20:40:10.677Z,61.30
2018-09-01T20:42:43.843Z,60.80
2018-09-01T20:45:17.022Z,61.00
2018-09-01T20:47:56.102Z,61.80
2018-09-01T20:50:29.282Z,62.90
2018-09-01T20:53:02.434Z,63.20
2018-09-01T20:55:35.597Z,61.70
2018-09-01T20:58:08.965Z,63.40
2018-09-01T21:00:42.155Z,62.90
2018-09-01T21:03:16.598Z,63.30
2018-09-01T21:05:49.758Z,62.30
2018-09-01T21:08:22.905Z,62.40
2018-09-01T21:10:58.086Z,63.00
2018-09-01T21:13:31.251Z,63.60
2018-09-01T21:16:04.725Z,64.00
2018-09-01T21:18:37.918Z,64.90
2018-09-01T21:21:11.061Z,64.10
2018-09-01T21:23:44.230Z,65.00
2018-09-01T21:26:17.400Z,64.50
2018-09-01T21:28:50.554Z,65.90
2018-09-01T21:31:23.744Z,64.30
2018-09-01T21:33:56.921Z,65.10
2018-09-01T21:36:31.132Z,64.40
2018-09-01T21:39:04.991Z,64.50
2018-09-01T21:41:38.662Z,65.40
2018-09-01T21:44:12.068Z,65.10
2018-09-01T21:46:45.411Z,64.70
2018-09-01T21:49:18.589Z,65.70
2018-09-01T21:51:51.746Z,66.30
2018-09-01T21:54:24.929Z,65.60
2018-09-01T21:56:58.183Z,66.80
2018-09-01T21:59:31.277Z,66.20
2018-09-01T22:02:09.896Z,66.30
2018-09-01T22:04:48.533Z,66.00
2018-09-01T22:07:22.207Z,66.80
2018-09-01T22:09:55.680Z,66.80
2018-09-01T22:12:28.964Z,67.30
2018-09-01T22:15:02.123Z,66.20
2018-09-01T22:17:35.287Z,67.10
2018-09-01T22:20:15.149Z,66.50
2018-09-01T22:22:48.316Z,67.50
2018-09-01T22:25:21.500Z,67.20
2018-09-01T22:27:54.673Z,66.50
2018-09-01T22:30:27.867Z,66.90
2018-09-01T22:33:01.018Z,67.60
2018-09-01T22:35:34.178Z,66.90
2018-09-01T22:38:07.338Z,66.90
2018-09-01T22:40:40.513Z,67.40
2018-09-01T22:43:13.685Z,68.60
2018-09-01T22:45:46.877Z,67.10
2018-09-01T22:48:20.850Z,66.90
2018-09-01T22:50:54.022Z,67.00
2018-09-01T22:53:27.174Z,67.30
2018-09-01T22:56:00.671Z,68.30
2018-09-01T22:58:33.822Z,68.10
2018-09-01T23:01:06.985Z,68.90
2018-09-01T23:03:40.177Z,68.00
2018-09-01T23:06:13.454Z,67.60
2018-09-01T23:08:46.817Z,67.90
2018-09-01T23:11:20.895Z,68.20
2018-09-01T23:13:54.059Z,67.90
2018-09-01T23:16:27.273Z,68.00
2018-09-01T23:19:00.509Z,68.10
2018-09-01T23:21:34.057Z,68.30
2018-09-01T23:24:07.415Z,69.20
2018-09-01T23:26:40.579Z,68.00
2018-09-01T23:29:13.748Z,67.90
2018-09-01T23:31:46.964Z,68.00
2018-09-01T23:34:21.124Z,67.80
2018-09-01T23:36:54.270Z,67.60
2018-09-01T23:39:27.429Z,68.60
2018-09-01T23:42:00.600Z,67.50
2018-09-01T23:44:33.868Z,68.60
2018-09-01T23:47:07.929Z,70.20
2018-09-01T23:49:41.176Z,69.50
2018-09-01T23:52:14.773Z,70.80
2018-09-01T23:54:48.058Z,70.80
2018-09-01T23:57:21.233Z,71.50
2018-09-01T23:59:54.399Z,73.80
